Corpus Christi International Airport Corpus Christi US
ICAO: KCRP
IATA: CRP
Category: Large
Scheduled Services: Yes

Elevation: 44 ft
TransAlt. 18000 ft.

Airport Communications:
APP/DEP:120.9
ATIS:126.8
CLNC DEL:118.55
GND:121.9
SAN ANGELO RDO:122.65
TWR:119.4
UNICOM:122.95

KCRP Zoom In..

Runways:

(A) RW 13 length 7508 ft width 150 ft
ILS 110.30 / hdg 129

(B) RW 17 length 6080 ft width 150 ft
LOC 110.30 / hdg 172

(C) RW 31 length 7508 ft width 150 ft
LOC 110.30 / hdg 309

(D) RW 35 length 6080 ft width 150 ft
ILS 109.50 / hdg 352

Location; KCRP
Day. 16 / Time. 17.51 Zulu
* Altimeter: 30.05
* Temperature: 32° c. 89.6°f.
* Wind from: 160° Speed 10 kn.
Dewpoint: 26° c.
Visibility: 10 Statute Miles.
Clouds: Few 3100 ft.
Clouds: Broken 25000 ft.

KCRP 161751Z 16010KT 10SM FEW031 BKN250 32/26 A3005 RMK AO2 SLP174 T03170261 10322 20250 50002 $


Wind From 160°
Speed 10 kn.

 
 
jpsmedia.com for Web Design worldairports.se 2018   terms of use